createdAt,value
2022-12-24T00:01:34.609Z,0.60
2022-12-24T00:04:02.811Z,0.60
2022-12-24T00:06:31.016Z,0.70
2022-12-24T00:08:59.196Z,1.10
2022-12-24T00:11:27.479Z,0.77
2022-12-24T00:13:57.150Z,0.80
2022-12-24T00:16:25.416Z,1.10
2022-12-24T00:18:53.595Z,1.23
2022-12-24T00:21:21.773Z,0.90
2022-12-24T00:23:49.986Z,1.00
2022-12-24T00:26:18.169Z,1.10
2022-12-24T00:28:46.384Z,0.80
2022-12-24T00:31:17.118Z,0.70
2022-12-24T00:33:47.053Z,0.97
2022-12-24T00:36:15.260Z,0.80
2022-12-24T00:38:44.285Z,0.87
2022-12-24T00:41:24.600Z,1.20
2022-12-24T00:43:53.476Z,0.60
2022-12-24T00:46:23.326Z,0.63
2022-12-24T00:48:51.529Z,0.70
2022-12-24T00:51:20.271Z,0.90
2022-12-24T00:53:48.514Z,0.80
2022-12-24T00:56:16.719Z,0.83
2022-12-24T00:58:44.948Z,0.73
2022-12-24T01:01:13.210Z,0.80
2022-12-24T01:03:42.957Z,0.97
2022-12-24T01:06:11.558Z,0.80
2022-12-24T01:08:39.818Z,0.97
2022-12-24T01:11:08.253Z,0.70
2022-12-24T01:13:36.539Z,0.70
2022-12-24T01:16:05.640Z,0.97
2022-12-24T01:18:33.914Z,1.00
2022-12-24T01:21:04.895Z,0.90
2022-12-24T01:23:33.121Z,0.80
2022-12-24T01:26:02.016Z,0.80
2022-12-24T01:28:30.537Z,1.33
2022-12-24T01:30:58.730Z,0.70
2022-12-24T01:33:29.537Z,0.90
2022-12-24T01:35:57.979Z,1.10
2022-12-24T01:38:27.522Z,0.70
2022-12-24T01:41:13.498Z,0.97
2022-12-24T01:43:41.644Z,1.03
2022-12-24T01:46:13.797Z,1.07
2022-12-24T01:48:43.129Z,0.87
2022-12-24T01:51:18.746Z,1.00
2022-12-24T01:53:50.979Z,1.10
2022-12-24T01:56:20.368Z,1.20
2022-12-24T01:58:49.993Z,1.33
2022-12-24T02:01:18.629Z,1.37
2022-12-24T02:03:47.079Z,1.10
2022-12-24T02:06:16.886Z,0.83
2022-12-24T02:08:45.367Z,1.00
2022-12-24T02:11:16.179Z,0.90
2022-12-24T02:13:45.633Z,1.10
2022-12-24T02:16:18.826Z,0.90
2022-12-24T02:18:50.600Z,1.00
2022-12-24T02:21:33.685Z,0.80
2022-12-24T02:24:08.956Z,1.00
2022-12-24T02:26:47.481Z,0.93
2022-12-24T02:29:29.298Z,1.00
2022-12-24T02:32:02.533Z,1.40
2022-12-24T02:34:32.272Z,0.93
2022-12-24T02:37:03.443Z,0.83
2022-12-24T02:39:35.565Z,1.20
2022-12-24T02:42:07.709Z,0.70
2022-12-24T02:44:39.481Z,1.00
2022-12-24T02:47:10.324Z,1.27
2022-12-24T02:49:38.950Z,0.93
2022-12-24T02:52:07.222Z,0.93
2022-12-24T02:54:35.458Z,1.10
2022-12-24T02:57:10.181Z,0.97
2022-12-24T02:59:50.657Z,1.17
2022-12-24T03:02:24.692Z,1.10
2022-12-24T03:04:58.063Z,1.07
2022-12-24T03:07:30.054Z,0.90
2022-12-24T03:10:03.745Z,1.10
2022-12-24T03:12:34.043Z,0.90
2022-12-24T03:15:02.913Z,1.43
2022-12-24T03:17:33.333Z,1.20
2022-12-24T03:20:01.576Z,1.00
2022-12-24T03:22:29.836Z,0.97
2022-12-24T03:24:58.084Z,1.10
2022-12-24T03:27:27.476Z,1.17
2022-12-24T03:29:55.805Z,1.10
2022-12-24T03:32:25.753Z,0.90
2022-12-24T03:34:55.332Z,1.20
2022-12-24T03:37:23.506Z,1.20
2022-12-24T03:39:51.667Z,0.90
2022-12-24T03:42:20.002Z,1.10
2022-12-24T03:44:48.275Z,1.03
2022-12-24T03:47:16.522Z,1.10
2022-12-24T03:49:44.751Z,1.00
2022-12-24T03:52:14.288Z,1.37
2022-12-24T03:54:42.448Z,1.00
2022-12-24T03:57:10.623Z,1.10
2022-12-24T03:59:38.857Z,0.90
2022-12-24T04:02:07.185Z,0.90
2022-12-24T04:04:36.810Z,0.93
2022-12-24T04:07:05.031Z,1.07
2022-12-24T04:09:34.608Z,0.90
2022-12-24T04:12:02.760Z,0.87
2022-12-24T04:14:30.992Z,0.90
2022-12-24T04:16:59.428Z,1.20
2022-12-24T04:19:27.761Z,1.07
2022-12-24T04:21:55.968Z,1.00
2022-12-24T04:24:24.235Z,0.90
2022-12-24T04:26:53.961Z,0.80
2022-12-24T04:29:22.231Z,1.07
2022-12-24T04:31:50.549Z,1.20
2022-12-24T04:34:18.775Z,1.00
2022-12-24T04:36:46.981Z,1.10
2022-12-24T04:39:15.196Z,1.10
2022-12-24T04:41:43.405Z,1.00
2022-12-24T04:44:12.983Z,1.00
2022-12-24T04:46:42.486Z,1.27
2022-12-24T04:49:10.646Z,0.83
2022-12-24T04:51:39.001Z,1.33
2022-12-24T04:54:07.210Z,1.10
2022-12-24T04:56:35.390Z,1.07
2022-12-24T04:59:03.756Z,1.70
2022-12-24T05:01:34.202Z,1.10
2022-12-24T05:04:02.726Z,0.87
2022-12-24T05:06:32.516Z,1.40
2022-12-24T05:09:01.217Z,0.90
2022-12-24T05:11:29.779Z,0.90
2022-12-24T05:13:57.965Z,1.13
2022-12-24T05:16:26.259Z,0.90
2022-12-24T05:18:55.869Z,1.20
2022-12-24T05:21:25.251Z,1.30
2022-12-24T05:24:11.747Z,0.97
2022-12-24T05:26:41.661Z,1.17
2022-12-24T05:29:12.066Z,1.43
2022-12-24T05:31:40.515Z,0.90
2022-12-24T05:34:10.385Z,0.90
2022-12-24T05:36:38.729Z,1.10
2022-12-24T05:39:11.589Z,1.10
2022-12-24T05:41:41.887Z,0.80
2022-12-24T05:44:10.112Z,1.23
2022-12-24T05:46:38.302Z,1.03
2022-12-24T05:49:06.609Z,1.10
2022-12-24T05:51:36.161Z,1.10
2022-12-24T05:54:04.635Z,1.07
2022-12-24T05:56:32.842Z,1.00
2022-12-24T05:59:01.057Z,0.90
2022-12-24T06:01:29.491Z,1.23
2022-12-24T06:03:58.433Z,0.77
2022-12-24T06:06:28.027Z,0.90
2022-12-24T06:08:57.534Z,0.70
2022-12-24T06:11:26.738Z,0.80
2022-12-24T06:13:55.273Z,0.70
2022-12-24T06:16:23.818Z,0.70
2022-12-24T06:18:52.161Z,0.80
2022-12-24T06:21:20.426Z,0.80
2022-12-24T06:23:48.960Z,0.80
2022-12-24T06:26:19.823Z,0.90
2022-12-24T06:28:48.061Z,0.60
2022-12-24T06:31:17.671Z,0.70
2022-12-24T06:33:46.016Z,0.67
2022-12-24T06:36:17.656Z,0.90
2022-12-24T06:38:46.393Z,0.60
2022-12-24T06:41:14.603Z,0.80
2022-12-24T06:43:46.834Z,0.60
2022-12-24T06:46:15.703Z,0.70
2022-12-24T06:48:44.715Z,0.77
2022-12-24T06:51:12.969Z,0.80
2022-12-24T06:53:41.272Z,0.70
2022-12-24T06:56:10.481Z,0.80
2022-12-24T06:58:38.690Z,0.70
2022-12-24T07:01:09.674Z,0.90
2022-12-24T07:03:38.271Z,0.80
2022-12-24T07:06:06.977Z,0.40
2022-12-24T07:08:36.278Z,0.60
2022-12-24T07:11:04.666Z,0.80
2022-12-24T07:13:34.359Z,0.80
2022-12-24T07:16:03.690Z,0.70
2022-12-24T07:18:33.382Z,0.83
2022-12-24T07:21:01.905Z,0.80
2022-12-24T07:23:31.172Z,0.83
2022-12-24T07:26:01.476Z,0.63
2022-12-24T07:28:29.870Z,0.70
2022-12-24T07:30:58.512Z,0.70
2022-12-24T07:33:27.102Z,0.87
2022-12-24T07:36:01.176Z,0.80
2022-12-24T07:38:29.385Z,0.83
2022-12-24T07:40:57.825Z,0.97
2022-12-24T07:43:26.341Z,0.83
2022-12-24T07:45:56.491Z,0.70
2022-12-24T07:48:24.660Z,1.00
2022-12-24T07:50:52.844Z,0.60
2022-12-24T07:53:22.462Z,0.90
2022-12-24T07:55:50.796Z,0.77
2022-12-24T07:58:19.239Z,0.60
2022-12-24T08:00:47.657Z,0.70
2022-12-24T08:03:18.629Z,0.80
2022-12-24T08:05:47.345Z,0.80
2022-12-24T08:08:15.527Z,0.73
2022-12-24T08:10:46.069Z,0.90
2022-12-24T08:13:14.647Z,0.63
2022-12-24T08:15:43.121Z,0.70
2022-12-24T08:18:11.384Z,0.83
2022-12-24T08:20:40.235Z,0.90
2022-12-24T08:23:08.974Z,0.70
2022-12-24T08:25:37.581Z,1.10
2022-12-24T08:28:07.311Z,0.60
2022-12-24T08:30:36.089Z,0.80
2022-12-24T08:33:04.473Z,0.70
2022-12-24T08:35:32.698Z,0.80
2022-12-24T08:38:00.882Z,0.80
2022-12-24T08:40:29.057Z,0.80
2022-12-24T08:42:57.368Z,0.67
2022-12-24T08:45:27.239Z,0.70
2022-12-24T08:47:55.452Z,1.50
2022-12-24T08:50:23.627Z,0.73
2022-12-24T08:52:51.823Z,0.73
2022-12-24T08:55:19.974Z,0.80
2022-12-24T08:57:48.260Z,0.73
2022-12-24T09:00:16.802Z,0.83
2022-12-24T09:02:46.431Z,1.10
2022-12-24T09:05:14.746Z,0.70
2022-12-24T09:07:42.921Z,0.90
2022-12-24T09:10:11.805Z,0.80
2022-12-24T09:12:39.977Z,1.00
2022-12-24T09:15:08.913Z,0.97
2022-12-24T09:17:37.453Z,1.00
2022-12-24T09:20:08.047Z,1.10
2022-12-24T09:22:37.058Z,1.17
2022-12-24T09:25:07.452Z,0.90
2022-12-24T09:27:35.965Z,0.70
2022-12-24T09:30:04.358Z,0.77
2022-12-24T09:32:32.588Z,0.80
2022-12-24T09:35:00.844Z,1.10
2022-12-24T09:37:30.413Z,0.70
2022-12-24T09:39:58.690Z,0.80
2022-12-24T09:42:31.100Z,0.63
2022-12-24T09:45:02.672Z,0.73
2022-12-24T09:47:33.786Z,1.93
2022-12-24T09:50:04.947Z,0.70
2022-12-24T09:52:36.988Z,0.80
2022-12-24T09:55:08.976Z,0.90
2022-12-24T09:57:38.726Z,1.00
2022-12-24T10:00:09.158Z,0.67
2022-12-24T10:02:37.506Z,0.87
2022-12-24T10:05:08.305Z,1.30
2022-12-24T10:07:40.679Z,1.00
2022-12-24T10:10:15.200Z,0.97
2022-12-24T10:12:50.066Z,0.90
2022-12-24T10:15:23.622Z,0.70
2022-12-24T10:18:00.327Z,0.70
2022-12-24T10:20:34.572Z,0.77
2022-12-24T10:23:06.954Z,0.87
2022-12-24T10:25:37.905Z,0.77
2022-12-24T10:28:13.894Z,0.83
2022-12-24T10:30:42.446Z,1.60
2022-12-24T10:33:16.356Z,0.90
2022-12-24T10:35:48.269Z,1.00
2022-12-24T10:38:17.788Z,0.70
2022-12-24T10:40:47.322Z,0.63
2022-12-24T10:43:16.932Z,0.90
2022-12-24T10:45:47.264Z,0.70
2022-12-24T10:48:18.757Z,0.80
2022-12-24T10:50:52.074Z,0.77
2022-12-24T10:53:25.085Z,0.80
2022-12-24T10:56:02.411Z,0.97
2022-12-24T10:58:30.682Z,0.83
2022-12-24T11:00:58.989Z,0.80
2022-12-24T11:03:31.437Z,0.80
2022-12-24T11:06:10.317Z,0.80
2022-12-24T11:08:40.986Z,1.20
2022-12-24T11:11:10.332Z,0.77
2022-12-24T11:13:40.125Z,0.70
2022-12-24T11:16:10.152Z,0.80
2022-12-24T11:18:43.712Z,0.93
2022-12-24T11:21:20.744Z,0.80
2022-12-24T11:23:52.283Z,0.70
2022-12-24T11:26:23.585Z,0.87
2022-12-24T11:29:05.404Z,0.73
2022-12-24T11:31:37.251Z,0.93
2022-12-24T11:34:19.386Z,0.90
2022-12-24T11:36:47.622Z,1.00
2022-12-24T11:39:21.206Z,1.03
2022-12-24T11:41:50.973Z,0.90
2022-12-24T11:44:24.297Z,1.13
2022-12-24T11:46:56.649Z,0.60
2022-12-24T11:49:26.372Z,0.80
2022-12-24T11:52:15.413Z,1.20
2022-12-24T11:54:49.811Z,1.10
2022-12-24T11:57:18.962Z,0.70
2022-12-24T11:59:48.963Z,0.90
2022-12-24T12:02:19.837Z,0.83
2022-12-24T12:04:51.191Z,0.73
2022-12-24T12:07:22.224Z,1.00
2022-12-24T12:09:53.948Z,0.80
2022-12-24T12:12:24.038Z,0.73
2022-12-24T12:14:53.298Z,0.97
2022-12-24T12:17:27.101Z,1.17
2022-12-24T12:19:59.025Z,1.00
2022-12-24T12:22:30.607Z,0.93
2022-12-24T12:25:00.951Z,0.80
2022-12-24T12:27:32.463Z,0.80
2022-12-24T12:30:02.496Z,1.77
2022-12-24T12:32:37.233Z,0.60
2022-12-24T12:35:11.317Z,1.20
2022-12-24T12:37:42.626Z,0.93
2022-12-24T12:40:16.090Z,1.10
2022-12-24T12:42:46.795Z,0.80
2022-12-24T12:45:21.787Z,0.77
2022-12-24T12:48:07.598Z,1.13
2022-12-24T12:50:38.406Z,1.10
2022-12-24T12:53:21.675Z,0.90
2022-12-24T12:55:54.990Z,1.23
2022-12-24T12:58:25.355Z,0.90
2022-12-24T13:00:56.219Z,0.83
2022-12-24T13:03:42.398Z,0.80
2022-12-24T13:06:28.459Z,1.27
2022-12-24T13:09:11.534Z,0.70
2022-12-24T13:11:52.304Z,0.87
2022-12-24T13:14:33.438Z,0.77
2022-12-24T13:17:13.712Z,0.70
2022-12-24T13:19:52.081Z,0.80
2022-12-24T13:22:23.109Z,0.93
2022-12-24T13:24:52.614Z,0.70
2022-12-24T13:27:25.184Z,0.87
2022-12-24T13:29:54.845Z,0.80
2022-12-24T13:32:40.105Z,0.80
2022-12-24T13:35:23.180Z,0.70
2022-12-24T13:37:52.117Z,0.83
2022-12-24T13:40:24.485Z,1.00
2022-12-24T13:43:12.469Z,0.90
2022-12-24T13:45:48.028Z,0.80
2022-12-24T13:48:20.393Z,1.00
2022-12-24T13:50:49.763Z,0.70
2022-12-24T13:53:24.087Z,0.80
2022-12-24T13:55:53.502Z,0.60
2022-12-24T13:58:23.105Z,0.80
2022-12-24T14:00:56.422Z,0.73
2022-12-24T14:03:27.833Z,0.80
2022-12-24T14:05:58.794Z,0.80
2022-12-24T14:08:39.215Z,0.70
2022-12-24T14:11:09.671Z,0.80
2022-12-24T14:14:08.110Z,0.97
2022-12-24T14:16:45.389Z,1.10
2022-12-24T14:19:15.763Z,1.00
2022-12-24T14:21:45.637Z,0.90
2022-12-24T14:24:15.937Z,0.90
2022-12-24T14:26:47.312Z,0.73
2022-12-24T14:29:24.480Z,1.03
2022-12-24T14:31:55.201Z,0.80
2022-12-24T14:34:23.634Z,0.80
2022-12-24T14:36:53.243Z,1.00
2022-12-24T14:39:24.598Z,0.90
2022-12-24T14:41:55.984Z,0.73
2022-12-24T14:44:35.426Z,1.00
2022-12-24T14:47:08.908Z,1.10
2022-12-24T14:49:49.184Z,1.30
2022-12-24T14:52:45.782Z,1.17
2022-12-24T14:55:29.629Z,2.03
2022-12-24T14:58:12.745Z,1.30
2022-12-24T15:00:44.299Z,1.10
2022-12-24T15:03:16.092Z,1.00
2022-12-24T15:05:44.978Z,0.80
2022-12-24T15:08:17.096Z,0.90
2022-12-24T15:10:46.096Z,1.00
2022-12-24T15:13:18.157Z,0.83
2022-12-24T15:15:52.286Z,1.00
2022-12-24T15:18:23.798Z,1.00
2022-12-24T15:20:57.193Z,0.90
2022-12-24T15:23:29.397Z,1.33
2022-12-24T15:26:11.190Z,1.00
2022-12-24T15:28:39.950Z,1.00
2022-12-24T15:31:10.376Z,1.53
2022-12-24T15:33:40.656Z,1.40
2022-12-24T15:36:09.716Z,1.00
2022-12-24T15:38:38.823Z,1.20
2022-12-24T15:41:08.817Z,0.80
2022-12-24T15:43:40.885Z,1.30
2022-12-24T15:46:09.233Z,1.00
2022-12-24T15:48:38.941Z,0.90
2022-12-24T15:51:08.661Z,1.07
2022-12-24T15:53:39.477Z,1.00
2022-12-24T15:56:09.786Z,1.20
2022-12-24T15:58:38.938Z,1.30
2022-12-24T16:01:08.776Z,1.00
2022-12-24T16:03:38.038Z,1.20
2022-12-24T16:06:07.907Z,1.60
2022-12-24T16:08:38.938Z,1.13
2022-12-24T16:11:16.004Z,1.43
2022-12-24T16:13:44.918Z,1.10
2022-12-24T16:16:15.059Z,1.40
2022-12-24T16:18:47.833Z,1.00
2022-12-24T16:21:21.110Z,1.50
2022-12-24T16:23:52.533Z,1.20
2022-12-24T16:26:21.606Z,1.50
2022-12-24T16:28:49.996Z,1.20
2022-12-24T16:31:19.568Z,1.33
2022-12-24T16:33:48.089Z,1.10
2022-12-24T16:36:16.328Z,1.30
2022-12-24T16:39:02.397Z,1.07
2022-12-24T16:41:52.042Z,1.10
2022-12-24T16:44:19.519Z,1.50
2022-12-24T16:46:47.783Z,1.67
2022-12-24T16:49:18.224Z,7.63
2022-12-24T16:51:46.493Z,1.10
2022-12-24T16:54:15.247Z,1.20
2022-12-24T16:56:45.567Z,1.00
2022-12-24T16:59:17.015Z,0.90
2022-12-24T17:01:45.494Z,1.20
2022-12-24T17:04:13.768Z,1.13
2022-12-24T17:06:42.278Z,1.00
2022-12-24T17:09:11.157Z,1.00
2022-12-24T17:11:39.596Z,1.10
2022-12-24T17:14:12.417Z,0.90
2022-12-24T17:16:43.712Z,1.10
2022-12-24T17:19:11.957Z,1.00
2022-12-24T17:21:40.795Z,1.10
2022-12-24T17:24:09.066Z,1.03
2022-12-24T17:26:37.793Z,1.10
2022-12-24T17:29:06.304Z,1.40
2022-12-24T17:31:38.159Z,1.23
2022-12-24T17:34:06.649Z,1.40
2022-12-24T17:36:34.917Z,1.67
2022-12-24T17:39:03.188Z,1.63
2022-12-24T17:41:31.365Z,1.37
2022-12-24T17:44:00.345Z,1.27
2022-12-24T17:46:28.519Z,1.50
2022-12-24T17:48:58.057Z,1.40
2022-12-24T17:51:26.336Z,1.53
2022-12-24T17:53:54.698Z,1.50
2022-12-24T17:56:22.932Z,1.50
2022-12-24T17:58:51.140Z,1.70
2022-12-24T18:01:20.619Z,1.50
2022-12-24T18:03:49.897Z,1.53
2022-12-24T18:06:20.017Z,1.50
2022-12-24T18:08:48.683Z,1.27
2022-12-24T18:11:18.552Z,1.80
2022-12-24T18:13:47.042Z,1.37
2022-12-24T18:16:16.042Z,1.43
2022-12-24T18:18:44.303Z,1.40
2022-12-24T18:21:12.891Z,1.50
2022-12-24T18:23:44.432Z,1.60
2022-12-24T18:26:12.924Z,1.70
2022-12-24T18:28:41.249Z,1.30
2022-12-24T18:31:10.385Z,1.77
2022-12-24T18:33:38.671Z,1.40
2022-12-24T18:36:07.248Z,1.47
2022-12-24T18:38:35.800Z,1.70
2022-12-24T18:41:05.781Z,2.00
2022-12-24T18:43:34.503Z,2.20
2022-12-24T18:46:07.674Z,1.87
2022-12-24T18:48:35.963Z,1.73
2022-12-24T18:51:04.260Z,1.70
2022-12-24T18:53:32.910Z,1.80
2022-12-24T18:56:03.893Z,2.20
2022-12-24T18:58:33.506Z,1.70
2022-12-24T19:01:04.884Z,2.13
2022-12-24T19:03:33.160Z,2.13
2022-12-24T19:06:02.837Z,1.40
2022-12-24T19:08:56.531Z,1.50
2022-12-24T19:11:19.709Z,1.63
2022-12-24T19:13:50.050Z,1.60
2022-12-24T19:16:18.780Z,1.83
2022-12-24T19:18:47.164Z,1.53
2022-12-24T19:21:17.171Z,1.43
2022-12-24T19:23:45.664Z,1.70
2022-12-24T19:26:14.408Z,1.30
2022-12-24T19:28:42.766Z,1.47
2022-12-24T19:31:13.610Z,1.70
2022-12-24T19:33:43.701Z,1.70
2022-12-24T19:36:13.144Z,1.53
2022-12-24T19:38:41.699Z,1.67
2022-12-24T19:41:10.602Z,2.20
2022-12-24T19:43:41.129Z,2.70
2022-12-24T19:46:09.654Z,3.07
2022-12-24T19:48:39.517Z,2.20
2022-12-24T19:51:08.665Z,1.93
2022-12-24T19:53:36.995Z,2.43
2022-12-24T19:56:05.690Z,2.50
2022-12-24T19:58:34.428Z,2.93
2022-12-24T20:01:11.160Z,2.10
2022-12-24T20:03:44.788Z,2.40
2022-12-24T20:06:13.398Z,2.10
2022-12-24T20:08:41.819Z,2.60
2022-12-24T20:11:10.718Z,1.77
2022-12-24T20:13:39.474Z,1.80
2022-12-24T20:16:08.599Z,1.70
2022-12-24T20:18:37.251Z,1.47
2022-12-24T20:21:08.731Z,1.40
2022-12-24T20:23:38.556Z,2.10
2022-12-24T20:26:07.980Z,1.63
2022-12-24T20:28:37.849Z,1.50
2022-12-24T20:31:10.609Z,1.67
2022-12-24T20:33:38.921Z,1.70
2022-12-24T20:36:08.747Z,2.03
2022-12-24T20:38:37.260Z,2.00
2022-12-24T20:41:06.260Z,1.90
2022-12-24T20:43:39.745Z,2.40
2022-12-24T20:46:11.709Z,1.57
2022-12-24T20:48:41.551Z,1.80
2022-12-24T20:51:14.060Z,1.40
2022-12-24T20:53:46.722Z,1.20
2022-12-24T20:56:15.363Z,1.43
2022-12-24T20:58:43.799Z,1.70
2022-12-24T21:01:12.384Z,1.33
2022-12-24T21:03:40.707Z,1.53
2022-12-24T21:06:09.318Z,1.50
2022-12-24T21:08:39.057Z,1.20
2022-12-24T21:11:25.204Z,1.40
2022-12-24T21:13:53.428Z,1.97
2022-12-24T21:16:21.849Z,3.03
2022-12-24T21:18:50.515Z,2.43
2022-12-24T21:21:18.956Z,1.80
2022-12-24T21:23:48.498Z,1.30
2022-12-24T21:26:16.707Z,1.90
2022-12-24T21:28:45.358Z,1.50
2022-12-24T21:31:14.442Z,1.60
2022-12-24T21:33:42.771Z,1.40
2022-12-24T21:36:11.764Z,1.40
2022-12-24T21:38:39.942Z,1.23
2022-12-24T21:41:10.994Z,1.30
2022-12-24T21:43:39.723Z,1.33
2022-12-24T21:46:08.938Z,1.20
2022-12-24T21:48:55.552Z,1.93
2022-12-24T21:51:24.392Z,1.00
2022-12-24T21:54:10.649Z,1.33
2022-12-24T21:56:54.391Z,1.20
2022-12-24T21:59:26.606Z,1.60
2022-12-24T22:01:55.871Z,1.63
2022-12-24T22:04:24.201Z,1.40
2022-12-24T22:07:10.136Z,1.37
2022-12-24T22:09:56.645Z,1.87
2022-12-24T22:12:26.238Z,1.70
2022-12-24T22:14:54.476Z,2.03
2022-12-24T22:17:25.423Z,3.70
2022-12-24T22:19:54.400Z,3.50
2022-12-24T22:22:22.646Z,3.50
2022-12-24T22:24:50.858Z,3.13
2022-12-24T22:27:19.259Z,3.80
2022-12-24T22:29:48.779Z,3.10
2022-12-24T22:32:16.961Z,2.20
2022-12-24T22:34:45.132Z,1.60
2022-12-24T22:37:13.310Z,1.43
2022-12-24T22:39:41.590Z,2.27
2022-12-24T22:42:09.784Z,2.23
2022-12-24T22:44:38.004Z,1.80
2022-12-24T22:47:07.816Z,1.93
2022-12-24T22:49:37.600Z,1.40
2022-12-24T22:52:06.049Z,1.40
2022-12-24T22:54:34.238Z,1.40
2022-12-24T22:57:02.407Z,1.40
2022-12-24T22:59:30.578Z,1.37
2022-12-24T23:01:58.914Z,1.50
2022-12-24T23:04:28.611Z,1.20
2022-12-24T23:06:56.941Z,1.43
2022-12-24T23:09:25.145Z,1.93
2022-12-24T23:11:53.361Z,1.30
2022-12-24T23:14:40.114Z,1.20
2022-12-24T23:17:08.722Z,1.30
2022-12-24T23:19:38.303Z,1.20
2022-12-24T23:22:07.471Z,1.33
2022-12-24T23:24:37.925Z,1.10
2022-12-24T23:27:06.122Z,1.30
2022-12-24T23:29:34.459Z,1.40
2022-12-24T23:32:02.799Z,1.40
2022-12-24T23:34:30.999Z,1.30
2022-12-24T23:37:00.588Z,1.40
2022-12-24T23:39:28.789Z,1.20
2022-12-24T23:41:56.963Z,1.17
2022-12-24T23:44:31.795Z,1.43
2022-12-24T23:47:00.836Z,1.20
2022-12-24T23:49:29.185Z,1.37
2022-12-24T23:51:57.477Z,1.23
2022-12-24T23:54:27.070Z,1.20
2022-12-24T23:56:55.259Z,1.30
2022-12-24T23:59:23.456Z,1.20
